sensor_id;sensor_type;location;lat;lon;timestamp;pressure;altitude;pressure_sealevel;temperature;humidity
61761;BME280;47664;51.660;-0.100;2023-02-16T00:00:32;101531.51;;;8.12;63.90
61761;BME280;47664;51.660;-0.100;2023-02-16T00:03:04;101535.77;;;8.33;63.90
61761;BME280;47664;51.660;-0.100;2023-02-16T00:05:37;101535.36;;;8.21;65.00
61761;BME280;47664;51.660;-0.100;2023-02-16T00:08:09;101536.94;;;7.93;65.16
61761;BME280;47664;51.660;-0.100;2023-02-16T00:10:42;101538.27;;;7.98;65.65
61761;BME280;47664;51.660;-0.100;2023-02-16T00:13:18;101537.96;;;8.04;65.28
61761;BME280;47664;51.660;-0.100;2023-02-16T00:15:52;101540.92;;;8.16;64.93
61761;BME280;47664;51.660;-0.100;2023-02-16T00:18:26;101539.23;;;8.14;64.46
61761;BME280;47664;51.660;-0.100;2023-02-16T00:20:58;101538.93;;;7.87;63.29
61761;BME280;47664;51.660;-0.100;2023-02-16T00:23:31;101536.36;;;8.64;62.11
61761;BME280;47664;51.660;-0.100;2023-02-16T00:26:03;101530.68;;;8.71;61.37
61761;BME280;47664;51.660;-0.100;2023-02-16T00:28:35;101527.47;;;8.67;61.63
61761;BME280;47664;51.660;-0.100;2023-02-16T00:31:09;101523.33;;;8.61;61.06
61761;BME280;47664;51.660;-0.100;2023-02-16T00:33:46;101518.81;;;8.97;60.88
61761;BME280;47664;51.660;-0.100;2023-02-16T00:36:19;101516.89;;;8.79;61.05
61761;BME280;47664;51.660;-0.100;2023-02-16T00:38:52;101512.33;;;8.78;61.51
61761;BME280;47664;51.660;-0.100;2023-02-16T00:41:25;101514.84;;;8.70;61.74
61761;BME280;47664;51.660;-0.100;2023-02-16T00:43:57;101518.25;;;8.08;62.37
61761;BME280;47664;51.660;-0.100;2023-02-16T00:46:29;101515.26;;;8.54;62.44
61761;BME280;47664;51.660;-0.100;2023-02-16T00:49:01;101516.80;;;7.94;62.17
61761;BME280;47664;51.660;-0.100;2023-02-16T00:51:33;101519.71;;;8.59;61.14
61761;BME280;47664;51.660;-0.100;2023-02-16T00:54:05;101515.13;;;7.79;62.46
61761;BME280;47664;51.660;-0.100;2023-02-16T00:56:37;101519.25;;;8.39;62.43
61761;BME280;47664;51.660;-0.100;2023-02-16T00:59:13;101517.66;;;8.12;63.17
61761;BME280;47664;51.660;-0.100;2023-02-16T01:01:45;101516.23;;;8.48;62.75
61761;BME280;47664;51.660;-0.100;2023-02-16T01:04:18;101517.31;;;8.55;62.21
61761;BME280;47664;51.660;-0.100;2023-02-16T01:06:51;101518.46;;;8.76;61.07
61761;BME280;47664;51.660;-0.100;2023-02-16T01:09:25;101515.39;;;8.86;60.24
61761;BME280;47664;51.660;-0.100;2023-02-16T01:11:57;101512.67;;;8.54;60.29
61761;BME280;47664;51.660;-0.100;2023-02-16T01:14:30;101512.05;;;8.67;60.43
61761;BME280;47664;51.660;-0.100;2023-02-16T01:17:04;101507.73;;;8.55;60.13
61761;BME280;47664;51.660;-0.100;2023-02-16T01:19:36;101509.18;;;8.71;60.30
61761;BME280;47664;51.660;-0.100;2023-02-16T01:22:08;101504.71;;;8.79;60.31
61761;BME280;47664;51.660;-0.100;2023-02-16T01:24:40;101508.98;;;8.54;60.66
61761;BME280;47664;51.660;-0.100;2023-02-16T01:27:14;101509.31;;;8.41;60.99
61761;BME280;47664;51.660;-0.100;2023-02-16T01:29:46;101503.62;;;8.73;60.93
61761;BME280;47664;51.660;-0.100;2023-02-16T01:32:18;101503.16;;;8.65;60.51
61761;BME280;47664;51.660;-0.100;2023-02-16T01:34:51;101501.36;;;9.06;60.73
61761;BME280;47664;51.660;-0.100;2023-02-16T01:37:23;101499.82;;;8.76;60.43
61761;BME280;47664;51.660;-0.100;2023-02-16T01:39:55;101499.35;;;9.16;60.00
61761;BME280;47664;51.660;-0.100;2023-02-16T01:42:30;101498.39;;;9.21;59.38
61761;BME280;47664;51.660;-0.100;2023-02-16T01:45:10;101499.02;;;8.74;59.95
61761;BME280;47664;51.660;-0.100;2023-02-16T01:47:48;101503.75;;;8.63;61.31
61761;BME280;47664;51.660;-0.100;2023-02-16T01:50:24;101502.19;;;8.38;61.17
61761;BME280;47664;51.660;-0.100;2023-02-16T01:52:56;101500.97;;;8.77;60.60
61761;BME280;47664;51.660;-0.100;2023-02-16T01:55:31;101496.14;;;9.07;59.87
61761;BME280;47664;51.660;-0.100;2023-02-16T01:58:05;101495.80;;;8.65;59.07
61761;BME280;47664;51.660;-0.100;2023-02-16T02:01:37;101500.90;;;8.89;60.48
61761;BME280;47664;51.660;-0.100;2023-02-16T02:04:13;101502.53;;;8.39;61.24
61761;BME280;47664;51.660;-0.100;2023-02-16T02:06:47;101496.04;;;8.95;60.85
61761;BME280;47664;51.660;-0.100;2023-02-16T02:09:21;101494.63;;;8.46;60.91
61761;BME280;47664;51.660;-0.100;2023-02-16T02:11:58;101496.11;;;8.26;61.36
61761;BME280;47664;51.660;-0.100;2023-02-16T02:14:36;101491.54;;;8.14;61.59
61761;BME280;47664;51.660;-0.100;2023-02-16T02:17:11;101490.61;;;8.40;62.24
61761;BME280;47664;51.660;-0.100;2023-02-16T02:19:50;101491.39;;;8.28;62.74
61761;BME280;47664;51.660;-0.100;2023-02-16T02:22:50;101492.12;;;8.23;63.37
61761;BME280;47664;51.660;-0.100;2023-02-16T02:25:41;101495.22;;;8.14;62.92
61761;BME280;47664;51.660;-0.100;2023-02-16T02:28:16;101494.83;;;7.89;63.08
61761;BME280;47664;51.660;-0.100;2023-02-16T02:30:48;101490.35;;;8.04;63.51
61761;BME280;47664;51.660;-0.100;2023-02-16T02:33:27;101490.89;;;7.96;63.74
61761;BME280;47664;51.660;-0.100;2023-02-16T02:36:07;101493.71;;;7.64;62.93
61761;BME280;47664;51.660;-0.100;2023-02-16T02:38:40;101494.01;;;8.14;63.40
61761;BME280;47664;51.660;-0.100;2023-02-16T02:41:19;101492.74;;;7.72;63.80
61761;BME280;47664;51.660;-0.100;2023-02-16T02:43:55;101492.57;;;7.93;63.80
61761;BME280;47664;51.660;-0.100;2023-02-16T02:46:30;101489.54;;;8.39;63.36
61761;BME280;47664;51.660;-0.100;2023-02-16T02:49:03;101489.14;;;7.61;63.85
61761;BME280;47664;51.660;-0.100;2023-02-16T02:51:35;101492.22;;;8.48;63.34
61761;BME280;47664;51.660;-0.100;2023-02-16T02:54:11;101491.73;;;7.97;64.34
61761;BME280;47664;51.660;-0.100;2023-02-16T02:56:46;101484.21;;;8.57;63.77
61761;BME280;47664;51.660;-0.100;2023-02-16T02:59:20;101474.67;;;8.40;62.57
61761;BME280;47664;51.660;-0.100;2023-02-16T03:01:55;101469.03;;;8.78;61.92
61761;BME280;47664;51.660;-0.100;2023-02-16T03:04:28;101461.78;;;8.32;61.88
61761;BME280;47664;51.660;-0.100;2023-02-16T03:07:02;101455.66;;;8.27;61.64
61761;BME280;47664;51.660;-0.100;2023-02-16T03:09:35;101450.14;;;8.86;60.46
61761;BME280;47664;51.660;-0.100;2023-02-16T03:12:08;101441.32;;;8.64;60.57
61761;BME280;47664;51.660;-0.100;2023-02-16T03:14:40;101434.98;;;9.30;59.80
61761;BME280;47664;51.660;-0.100;2023-02-16T03:17:17;101432.40;;;9.22;58.90
61761;BME280;47664;51.660;-0.100;2023-02-16T03:19:53;101427.54;;;9.21;59.21
61761;BME280;47664;51.660;-0.100;2023-02-16T03:22:27;101423.06;;;9.21;58.97
61761;BME280;47664;51.660;-0.100;2023-02-16T03:25:00;101415.32;;;9.02;58.87
61761;BME280;47664;51.660;-0.100;2023-02-16T03:27:34;101412.59;;;9.25;59.01
61761;BME280;47664;51.660;-0.100;2023-02-16T03:30:10;101408.11;;;9.26;58.61
61761;BME280;47664;51.660;-0.100;2023-02-16T03:32:43;101405.03;;;9.60;58.63
61761;BME280;47664;51.660;-0.100;2023-02-16T03:35:16;101402.45;;;9.21;58.90
61761;BME280;47664;51.660;-0.100;2023-02-16T03:37:48;101398.45;;;9.26;59.42
61761;BME280;47664;51.660;-0.100;2023-02-16T03:40:21;101396.69;;;9.37;59.35
61761;BME280;47664;51.660;-0.100;2023-02-16T03:42:58;101394.56;;;9.16;59.03
61761;BME280;47664;51.660;-0.100;2023-02-16T03:45:32;101389.80;;;9.11;58.99
61761;BME280;47664;51.660;-0.100;2023-02-16T03:48:05;101385.81;;;8.72;59.49
61761;BME280;47664;51.660;-0.100;2023-02-16T03:50:38;101386.87;;;9.38;59.14
61761;BME280;47664;51.660;-0.100;2023-02-16T03:53:10;101381.83;;;8.85;59.11
61761;BME280;47664;51.660;-0.100;2023-02-16T03:55:43;101382.62;;;9.38;58.82
61761;BME280;47664;51.660;-0.100;2023-02-16T03:58:19;101378.42;;;9.52;58.62
61761;BME280;47664;51.660;-0.100;2023-02-16T04:00:51;101378.60;;;8.98;58.48
61761;BME280;47664;51.660;-0.100;2023-02-16T04:03:24;101380.69;;;9.31;58.05
61761;BME280;47664;51.660;-0.100;2023-02-16T04:05:56;101386.33;;;9.11;58.40
61761;BME280;47664;51.660;-0.100;2023-02-16T04:08:28;101391.67;;;9.12;58.48
61761;BME280;47664;51.660;-0.100;2023-02-16T04:11:01;101390.88;;;8.75;57.86
61761;BME280;47664;51.660;-0.100;2023-02-16T04:13:33;101394.28;;;8.99;58.96
61761;BME280;47664;51.660;-0.100;2023-02-16T04:16:06;101390.01;;;8.76;58.15
61761;BME280;47664;51.660;-0.100;2023-02-16T04:18:38;101387.75;;;9.47;57.92
61761;BME280;47664;51.660;-0.100;2023-02-16T04:21:11;101383.36;;;9.08;58.10
61761;BME280;47664;51.660;-0.100;2023-02-16T04:23:44;101371.04;;;9.16;58.30
61761;BME280;47664;51.660;-0.100;2023-02-16T04:26:16;101368.09;;;8.86;58.80
61761;BME280;47664;51.660;-0.100;2023-02-16T04:28:48;101372.17;;;9.17;58.40
61761;BME280;47664;51.660;-0.100;2023-02-16T04:31:20;101360.41;;;8.85;58.38
61761;BME280;47664;51.660;-0.100;2023-02-16T04:33:52;101350.70;;;8.96;58.58
61761;BME280;47664;51.660;-0.100;2023-02-16T04:36:24;101362.70;;;9.17;59.24
61761;BME280;47664;51.660;-0.100;2023-02-16T04:38:56;101355.28;;;8.44;59.67
61761;BME280;47664;51.660;-0.100;2023-02-16T04:41:28;101361.45;;;8.31;59.87
61761;BME280;47664;51.660;-0.100;2023-02-16T04:44:01;101363.32;;;7.96;59.87
61761;BME280;47664;51.660;-0.100;2023-02-16T04:46:33;101360.41;;;8.81;59.72
61761;BME280;47664;51.660;-0.100;2023-02-16T04:49:05;101356.62;;;8.30;59.14
61761;BME280;47664;51.660;-0.100;2023-02-16T04:51:37;101359.59;;;9.00;59.06
61761;BME280;47664;51.660;-0.100;2023-02-16T04:54:09;101353.36;;;8.43;58.88
61761;BME280;47664;51.660;-0.100;2023-02-16T04:56:42;101347.85;;;8.73;59.17
61761;BME280;47664;51.660;-0.100;2023-02-16T04:59:14;101340.52;;;9.13;58.79
61761;BME280;47664;51.660;-0.100;2023-02-16T05:01:47;101339.56;;;9.13;58.52
61761;BME280;47664;51.660;-0.100;2023-02-16T05:04:19;101342.13;;;8.30;59.09
61761;BME280;47664;51.660;-0.100;2023-02-16T05:06:52;101338.83;;;9.03;58.72
61761;BME280;47664;51.660;-0.100;2023-02-16T05:09:25;101341.97;;;7.57;60.41
61761;BME280;47664;51.660;-0.100;2023-02-16T05:11:57;101342.43;;;8.15;59.96
61761;BME280;47664;51.660;-0.100;2023-02-16T05:14:31;101337.20;;;8.21;60.71
61761;BME280;47664;51.660;-0.100;2023-02-16T05:17:04;101329.61;;;7.68;59.94
61761;BME280;47664;51.660;-0.100;2023-02-16T05:19:36;101328.08;;;8.16;60.39
61761;BME280;47664;51.660;-0.100;2023-02-16T05:22:08;101330.59;;;8.00;60.04
61761;BME280;47664;51.660;-0.100;2023-02-16T05:24:41;101328.41;;;7.86;60.79
61761;BME280;47664;51.660;-0.100;2023-02-16T05:27:16;101330.01;;;7.86;60.30
61761;BME280;47664;51.660;-0.100;2023-02-16T05:29:49;101328.31;;;7.91;61.47
61761;BME280;47664;51.660;-0.100;2023-02-16T05:32:22;101320.74;;;8.36;60.87
61761;BME280;47664;51.660;-0.100;2023-02-16T05:34:54;101326.23;;;8.29;60.55
61761;BME280;47664;51.660;-0.100;2023-02-16T05:37:26;101336.23;;;8.24;60.50
61761;BME280;47664;51.660;-0.100;2023-02-16T05:39:59;101333.23;;;7.71;60.47
61761;BME280;47664;51.660;-0.100;2023-02-16T05:42:31;101334.08;;;8.46;60.45
61761;BME280;47664;51.660;-0.100;2023-02-16T05:45:03;101339.59;;;8.04;60.24
61761;BME280;47664;51.660;-0.100;2023-02-16T05:47:35;101337.19;;;8.32;60.90
61761;BME280;47664;51.660;-0.100;2023-02-16T05:50:07;101334.21;;;8.01;61.48
61761;BME280;47664;51.660;-0.100;2023-02-16T05:52:39;101334.64;;;7.71;61.75
61761;BME280;47664;51.660;-0.100;2023-02-16T05:55:12;101325.31;;;7.93;61.81
61761;BME280;47664;51.660;-0.100;2023-02-16T05:57:44;101320.47;;;8.10;61.80
61761;BME280;47664;51.660;-0.100;2023-02-16T06:00:17;101313.96;;;8.18;61.84
61761;BME280;47664;51.660;-0.100;2023-02-16T06:02:49;101308.37;;;8.01;61.53
61761;BME280;47664;51.660;-0.100;2023-02-16T06:05:21;101302.11;;;8.15;61.81
61761;BME280;47664;51.660;-0.100;2023-02-16T06:07:53;101298.88;;;8.19;61.58
61761;BME280;47664;51.660;-0.100;2023-02-16T06:10:26;101299.81;;;8.31;61.24
61761;BME280;47664;51.660;-0.100;2023-02-16T06:12:58;101301.49;;;7.53;62.56
61761;BME280;47664;51.660;-0.100;2023-02-16T06:15:30;101306.24;;;8.17;62.55
61761;BME280;47664;51.660;-0.100;2023-02-16T06:18:03;101309.09;;;7.56;62.91
61761;BME280;47664;51.660;-0.100;2023-02-16T06:20:34;101300.54;;;7.98;63.24
61761;BME280;47664;51.660;-0.100;2023-02-16T06:23:07;101298.25;;;7.25;63.92
61761;BME280;47664;51.660;-0.100;2023-02-16T06:25:42;101300.62;;;7.85;63.77
61761;BME280;47664;51.660;-0.100;2023-02-16T06:28:15;101297.09;;;8.28;63.15
61761;BME280;47664;51.660;-0.100;2023-02-16T06:30:47;101292.82;;;8.33;62.76
61761;BME280;47664;51.660;-0.100;2023-02-16T06:33:19;101292.38;;;7.40;65.59
61761;BME280;47664;51.660;-0.100;2023-02-16T06:35:51;101292.43;;;7.88;65.32
61761;BME280;47664;51.660;-0.100;2023-02-16T06:38:23;101291.39;;;7.78;65.28
61761;BME280;47664;51.660;-0.100;2023-02-16T06:40:56;101295.66;;;7.05;68.12
61761;BME280;47664;51.660;-0.100;2023-02-16T06:43:28;101297.42;;;7.08;67.86
61761;BME280;47664;51.660;-0.100;2023-02-16T06:46:00;101294.79;;;6.45;69.24
61761;BME280;47664;51.660;-0.100;2023-02-16T06:48:32;101303.59;;;7.64;68.10
61761;BME280;47664;51.660;-0.100;2023-02-16T06:51:04;101298.27;;;7.02;67.35
61761;BME280;47664;51.660;-0.100;2023-02-16T06:53:36;101309.33;;;7.57;67.53
61761;BME280;47664;51.660;-0.100;2023-02-16T06:56:08;101313.20;;;7.38;67.50
61761;BME280;47664;51.660;-0.100;2023-02-16T06:58:40;101310.44;;;7.68;67.66
61761;BME280;47664;51.660;-0.100;2023-02-16T07:01:13;101313.20;;;7.51;67.21
61761;BME280;47664;51.660;-0.100;2023-02-16T07:03:44;101309.85;;;7.48;67.64
61761;BME280;47664;51.660;-0.100;2023-02-16T07:06:17;101307.51;;;7.39;68.34
61761;BME280;47664;51.660;-0.100;2023-02-16T07:08:51;101305.01;;;7.72;67.83
61761;BME280;47664;51.660;-0.100;2023-02-16T07:11:24;101305.76;;;7.61;67.62
61761;BME280;47664;51.660;-0.100;2023-02-16T07:13:56;101296.03;;;7.23;68.57
61761;BME280;47664;51.660;-0.100;2023-02-16T07:16:29;101298.33;;;7.61;68.05
61761;BME280;47664;51.660;-0.100;2023-02-16T07:19:01;101300.24;;;7.04;68.37
61761;BME280;47664;51.660;-0.100;2023-02-16T07:21:34;101297.24;;;7.54;68.15
61761;BME280;47664;51.660;-0.100;2023-02-16T07:24:06;101299.82;;;7.46;67.57
61761;BME280;47664;51.660;-0.100;2023-02-16T07:26:38;101302.99;;;7.82;66.90
61761;BME280;47664;51.660;-0.100;2023-02-16T07:29:10;101298.82;;;7.56;66.53
61761;BME280;47664;51.660;-0.100;2023-02-16T07:31:43;101292.78;;;7.81;66.17
61761;BME280;47664;51.660;-0.100;2023-02-16T07:34:15;101295.78;;;7.69;65.06
61761;BME280;47664;51.660;-0.100;2023-02-16T07:36:46;101295.58;;;7.95;66.09
61761;BME280;47664;51.660;-0.100;2023-02-16T07:39:18;101292.16;;;7.96;64.81
61761;BME280;47664;51.660;-0.100;2023-02-16T07:41:50;101295.22;;;7.77;65.65
61761;BME280;47664;51.660;-0.100;2023-02-16T07:44:22;101298.73;;;8.05;64.47
61761;BME280;47664;51.660;-0.100;2023-02-16T07:46:55;101294.69;;;8.14;64.23
61761;BME280;47664;51.660;-0.100;2023-02-16T07:49:27;101296.72;;;8.24;64.23
61761;BME280;47664;51.660;-0.100;2023-02-16T07:51:59;101306.18;;;7.46;64.12
61761;BME280;47664;51.660;-0.100;2023-02-16T07:54:31;101305.36;;;8.21;63.28
61761;BME280;47664;51.660;-0.100;2023-02-16T07:57:03;101303.21;;;7.48;64.87
61761;BME280;47664;51.660;-0.100;2023-02-16T07:59:35;101301.85;;;7.63;65.04
61761;BME280;47664;51.660;-0.100;2023-02-16T08:02:13;101305.47;;;7.85;64.45
61761;BME280;47664;51.660;-0.100;2023-02-16T08:04:46;101307.12;;;8.20;64.01
61761;BME280;47664;51.660;-0.100;2023-02-16T08:07:20;101311.12;;;7.55;64.70
61761;BME280;47664;51.660;-0.100;2023-02-16T08:09:52;101302.36;;;8.19;63.68
61761;BME280;47664;51.660;-0.100;2023-02-16T08:12:24;101295.62;;;8.28;63.09
61761;BME280;47664;51.660;-0.100;2023-02-16T08:14:56;101296.20;;;7.95;63.36
61761;BME280;47664;51.660;-0.100;2023-02-16T08:17:28;101291.75;;;8.42;62.55
61761;BME280;47664;51.660;-0.100;2023-02-16T08:20:01;101299.48;;;7.11;64.98
61761;BME280;47664;51.660;-0.100;2023-02-16T08:22:33;101297.41;;;8.11;64.66
61761;BME280;47664;51.660;-0.100;2023-02-16T08:25:05;101295.81;;;7.31;64.97
61761;BME280;47664;51.660;-0.100;2023-02-16T08:27:37;101296.35;;;7.98;64.62
61761;BME280;47664;51.660;-0.100;2023-02-16T08:30:11;101297.26;;;7.37;66.38
61761;BME280;47664;51.660;-0.100;2023-02-16T08:32:43;101295.44;;;6.94;67.40
61761;BME280;47664;51.660;-0.100;2023-02-16T08:35:15;101289.55;;;7.39;66.40
61761;BME280;47664;51.660;-0.100;2023-02-16T08:37:47;101285.23;;;7.74;65.82
61761;BME280;47664;51.660;-0.100;2023-02-16T08:40:19;101281.74;;;7.61;66.40
61761;BME280;47664;51.660;-0.100;2023-02-16T08:42:52;101283.40;;;7.49;66.63
61761;BME280;47664;51.660;-0.100;2023-02-16T08:45:23;101277.90;;;7.27;67.70
61761;BME280;47664;51.660;-0.100;2023-02-16T08:47:56;101282.88;;;7.62;67.19
61761;BME280;47664;51.660;-0.100;2023-02-16T08:50:28;101278.60;;;7.92;66.24
61761;BME280;47664;51.660;-0.100;2023-02-16T08:53:00;101276.38;;;7.38;67.11
61761;BME280;47664;51.660;-0.100;2023-02-16T08:55:32;101273.92;;;7.90;66.93
61761;BME280;47664;51.660;-0.100;2023-02-16T08:58:04;101276.61;;;7.21;67.59
61761;BME280;47664;51.660;-0.100;2023-02-16T09:00:36;101277.35;;;7.83;68.04
61761;BME280;47664;51.660;-0.100;2023-02-16T09:03:09;101275.34;;;7.71;67.12
61761;BME280;47664;51.660;-0.100;2023-02-16T09:05:41;101273.14;;;8.07;66.45
61761;BME280;47664;51.660;-0.100;2023-02-16T09:08:13;101280.86;;;7.96;67.87
61761;BME280;47664;51.660;-0.100;2023-02-16T09:10:45;101282.62;;;8.00;67.31
61761;BME280;47664;51.660;-0.100;2023-02-16T09:13:17;101270.76;;;8.38;66.99
61761;BME280;47664;51.660;-0.100;2023-02-16T09:15:50;101270.14;;;8.48;66.93
61761;BME280;47664;51.660;-0.100;2023-02-16T09:18:22;101270.68;;;8.29;67.15
61761;BME280;47664;51.660;-0.100;2023-02-16T09:20:55;101271.24;;;8.41;67.11
61761;BME280;47664;51.660;-0.100;2023-02-16T09:23:27;101274.14;;;8.81;66.34
61761;BME280;47664;51.660;-0.100;2023-02-16T09:25:59;101265.29;;;8.29;66.70
61761;BME280;47664;51.660;-0.100;2023-02-16T09:28:31;101264.31;;;8.07;69.11
61761;BME280;47664;51.660;-0.100;2023-02-16T09:31:08;101266.76;;;8.13;69.08
61761;BME280;47664;51.660;-0.100;2023-02-16T09:33:40;101265.61;;;8.35;68.80
61761;BME280;47664;51.660;-0.100;2023-02-16T09:36:15;101269.76;;;8.03;68.71
61761;BME280;47664;51.660;-0.100;2023-02-16T09:38:47;101269.61;;;8.45;68.95
61761;BME280;47664;51.660;-0.100;2023-02-16T09:41:23;101278.26;;;8.36;70.62
61761;BME280;47664;51.660;-0.100;2023-02-16T09:44:02;101279.24;;;8.11;70.74
61761;BME280;47664;51.660;-0.100;2023-02-16T09:46:37;101284.90;;;8.50;70.16
61761;BME280;47664;51.660;-0.100;2023-02-16T09:49:14;101281.67;;;8.41;69.42
61761;BME280;47664;51.660;-0.100;2023-02-16T09:51:55;101271.69;;;8.66;70.14
61761;BME280;47664;51.660;-0.100;2023-02-16T09:54:34;101273.97;;;8.82;69.30
61761;BME280;47664;51.660;-0.100;2023-02-16T09:57:14;101270.50;;;8.29;70.37
61761;BME280;47664;51.660;-0.100;2023-02-16T09:59:50;101272.47;;;8.57;72.09
61761;BME280;47664;51.660;-0.100;2023-02-16T10:02:32;101274.03;;;8.22;72.85
61761;BME280;47664;51.660;-0.100;2023-02-16T10:05:16;101269.32;;;8.60;71.28
61761;BME280;47664;51.660;-0.100;2023-02-16T10:07:54;101267.82;;;8.64;72.79
61761;BME280;47664;51.660;-0.100;2023-02-16T10:10:30;101264.47;;;8.40;72.85
61761;BME280;47664;51.660;-0.100;2023-02-16T10:13:03;101269.38;;;7.79;73.95
61761;BME280;47664;51.660;-0.100;2023-02-16T10:15:38;101265.54;;;8.46;73.16
61761;BME280;47664;51.660;-0.100;2023-02-16T10:18:18;101265.94;;;8.34;72.83
61761;BME280;47664;51.660;-0.100;2023-02-16T10:20:51;101268.88;;;8.74;72.70
61761;BME280;47664;51.660;-0.100;2023-02-16T10:23:30;101267.03;;;8.09;73.50
61761;BME280;47664;51.660;-0.100;2023-02-16T10:26:03;101265.70;;;7.97;72.87
61761;BME280;47664;51.660;-0.100;2023-02-16T10:28:39;101264.12;;;8.57;72.41
61761;BME280;47664;51.660;-0.100;2023-02-16T10:31:14;101266.79;;;8.27;73.27
61761;BME280;47664;51.660;-0.100;2023-02-16T10:33:59;101262.80;;;8.25;73.52
61761;BME280;47664;51.660;-0.100;2023-02-16T10:36:43;101277.06;;;8.75;73.06
61761;BME280;47664;51.660;-0.100;2023-02-16T10:39:17;101278.58;;;8.31;73.40
61761;BME280;47664;51.660;-0.100;2023-02-16T10:41:58;101272.74;;;8.42;74.25
61761;BME280;47664;51.660;-0.100;2023-02-16T10:44:30;101271.16;;;8.83;73.14
61761;BME280;47664;51.660;-0.100;2023-02-16T10:47:10;101265.34;;;8.28;73.94
61761;BME280;47664;51.660;-0.100;2023-02-16T10:49:46;101264.48;;;8.77;73.75
61761;BME280;47664;51.660;-0.100;2023-02-16T10:52:19;101268.21;;;8.48;72.65
61761;BME280;47664;51.660;-0.100;2023-02-16T10:54:52;101273.09;;;8.72;73.36
61761;BME280;47664;51.660;-0.100;2023-02-16T10:57:25;101276.88;;;9.14;72.41
61761;BME280;47664;51.660;-0.100;2023-02-16T10:59:59;101279.34;;;8.65;72.10
61761;BME280;47664;51.660;-0.100;2023-02-16T11:02:35;101272.07;;;8.69;73.08
61761;BME280;47664;51.660;-0.100;2023-02-16T11:05:28;101265.55;;;8.49;73.70
61761;BME280;47664;51.660;-0.100;2023-02-16T11:08:03;101263.00;;;8.28;73.26
61761;BME280;47664;51.660;-0.100;2023-02-16T11:10:37;101266.02;;;9.21;72.27
61761;BME280;47664;51.660;-0.100;2023-02-16T11:13:17;101255.40;;;8.76;73.38
61761;BME280;47664;51.660;-0.100;2023-02-16T11:15:51;101261.39;;;8.99;72.61
61761;BME280;47664;51.660;-0.100;2023-02-16T11:18:30;101263.34;;;8.85;72.53
61761;BME280;47664;51.660;-0.100;2023-02-16T11:21:04;101260.87;;;8.35;73.17
61761;BME280;47664;51.660;-0.100;2023-02-16T11:23:38;101260.82;;;9.16;72.58
61761;BME280;47664;51.660;-0.100;2023-02-16T11:26:20;101252.07;;;8.76;72.27
61761;BME280;47664;51.660;-0.100;2023-02-16T11:29:00;101249.60;;;8.97;72.77
61761;BME280;47664;51.660;-0.100;2023-02-16T11:31:38;101256.10;;;8.89;72.04
61761;BME280;47664;51.660;-0.100;2023-02-16T11:34:13;101250.93;;;9.62;70.29
61761;BME280;47664;51.660;-0.100;2023-02-16T11:36:49;101250.34;;;9.60;70.31
61761;BME280;47664;51.660;-0.100;2023-02-16T11:39:23;101244.61;;;9.91;69.84
61761;BME280;47664;51.660;-0.100;2023-02-16T11:41:58;101238.61;;;9.78;70.15
61761;BME280;47664;51.660;-0.100;2023-02-16T11:44:31;101245.00;;;9.72;70.67
61761;BME280;47664;51.660;-0.100;2023-02-16T11:47:06;101248.56;;;9.47;71.28
61761;BME280;47664;51.660;-0.100;2023-02-16T11:49:41;101259.22;;;9.22;71.73
61761;BME280;47664;51.660;-0.100;2023-02-16T11:52:29;101264.94;;;8.98;72.67
61761;BME280;47664;51.660;-0.100;2023-02-16T11:55:12;101260.29;;;8.92;72.34
61761;BME280;47664;51.660;-0.100;2023-02-16T11:57:49;101261.59;;;9.45;71.93
61761;BME280;47664;51.660;-0.100;2023-02-16T12:00:23;101263.11;;;9.72;71.75
61761;BME280;47664;51.660;-0.100;2023-02-16T12:03:23;101265.49;;;9.73;71.89
61761;BME280;47664;51.660;-0.100;2023-02-16T12:06:08;101255.23;;;9.01;72.20
61761;BME280;47664;51.660;-0.100;2023-02-16T12:08:51;101248.58;;;9.71;71.90
61761;BME280;47664;51.660;-0.100;2023-02-16T12:11:33;101238.30;;;9.45;72.65
61761;BME280;47664;51.660;-0.100;2023-02-16T12:14:16;101234.46;;;9.16;72.22
61761;BME280;47664;51.660;-0.100;2023-02-16T12:16:51;101231.91;;;9.54;72.68
61761;BME280;47664;51.660;-0.100;2023-02-16T12:19:34;101220.94;;;9.42;71.82
61761;BME280;47664;51.660;-0.100;2023-02-16T12:22:08;101211.47;;;9.73;70.50
61761;BME280;47664;51.660;-0.100;2023-02-16T12:24:46;101212.57;;;9.82;72.07
61761;BME280;47664;51.660;-0.100;2023-02-16T12:27:21;101205.52;;;9.34;71.44
61761;BME280;47664;51.660;-0.100;2023-02-16T12:29:59;101212.34;;;9.47;71.72
61761;BME280;47664;51.660;-0.100;2023-02-16T12:32:38;101205.40;;;9.72;71.60
61761;BME280;47664;51.660;-0.100;2023-02-16T12:35:20;101203.33;;;9.77;71.68
61761;BME280;47664;51.660;-0.100;2023-02-16T12:37:59;101208.95;;;9.36;72.62
61761;BME280;47664;51.660;-0.100;2023-02-16T12:40:39;101218.72;;;9.55;72.80
61761;BME280;47664;51.660;-0.100;2023-02-16T12:43:26;101217.58;;;9.75;72.35
61761;BME280;47664;51.660;-0.100;2023-02-16T12:46:00;101209.98;;;9.39;71.30
61761;BME280;47664;51.660;-0.100;2023-02-16T12:48:37;101212.89;;;9.90;71.73
61761;BME280;47664;51.660;-0.100;2023-02-16T12:51:09;101210.36;;;9.98;71.42
61761;BME280;47664;51.660;-0.100;2023-02-16T12:53:45;101208.39;;;10.44;70.18
61761;BME280;47664;51.660;-0.100;2023-02-16T12:56:18;101203.49;;;10.26;70.11
61761;BME280;47664;51.660;-0.100;2023-02-16T12:58:59;101197.68;;;10.35;70.77
61761;BME280;47664;51.660;-0.100;2023-02-16T13:01:35;101200.03;;;10.19;71.25
61761;BME280;47664;51.660;-0.100;2023-02-16T13:04:10;101200.49;;;9.87;70.15
61761;BME280;47664;51.660;-0.100;2023-02-16T13:06:47;101197.54;;;10.34;70.26
61761;BME280;47664;51.660;-0.100;2023-02-16T13:09:25;101192.66;;;10.23;70.39
61761;BME280;47664;51.660;-0.100;2023-02-16T13:11:58;101194.36;;;10.20;69.58
61761;BME280;47664;51.660;-0.100;2023-02-16T13:14:37;101194.21;;;10.42;70.19
61761;BME280;47664;51.660;-0.100;2023-02-16T13:17:11;101195.63;;;10.04;70.81
61761;BME280;47664;51.660;-0.100;2023-02-16T13:19:46;101200.26;;;10.63;69.61
61761;BME280;47664;51.660;-0.100;2023-02-16T13:22:28;101204.73;;;10.39;70.19
61761;BME280;47664;51.660;-0.100;2023-02-16T13:25:16;101202.20;;;10.26;70.69
61761;BME280;47664;51.660;-0.100;2023-02-16T13:27:53;101198.08;;;10.37;70.96